sensor_id;sensor_type;location;lat;lon;timestamp;temperature;humidity
9103;DHT22;4587;51.434;6.788;2022-07-11T00:00:11;18.70;99.90
9103;DHT22;4587;51.434;6.788;2022-07-11T00:02:38;18.60;99.90
9103;DHT22;4587;51.434;6.788;2022-07-11T00:05:07;18.50;99.90
9103;DHT22;4587;51.434;6.788;2022-07-11T00:07:34;18.40;99.90
9103;DHT22;4587;51.434;6.788;2022-07-11T00:10:00;18.40;99.90
9103;DHT22;4587;51.434;6.788;2022-07-11T00:12:25;18.40;99.90
9103;DHT22;4587;51.434;6.788;2022-07-11T00:14:53;18.30;99.90
9103;DHT22;4587;51.434;6.788;2022-07-11T00:17:19;18.30;99.90
9103;DHT22;4587;51.434;6.788;2022-07-11T00:19:44;18.30;99.90
9103;DHT22;4587;51.434;6.788;2022-07-11T00:22:11;18.20;99.90
9103;DHT22;4587;51.434;6.788;2022-07-11T00:24:37;18.20;99.90
9103;DHT22;4587;51.434;6.788;2022-07-11T00:27:03;18.20;99.90
9103;DHT22;4587;51.434;6.788;2022-07-11T00:29:29;18.10;99.90
9103;DHT22;4587;51.434;6.788;2022-07-11T00:31:55;18.10;99.90
9103;DHT22;4587;51.434;6.788;2022-07-11T00:34:20;18.10;99.90
9103;DHT22;4587;51.434;6.788;2022-07-11T00:36:46;18.20;99.90
9103;DHT22;4587;51.434;6.788;2022-07-11T00:39:12;18.20;99.90
9103;DHT22;4587;51.434;6.788;2022-07-11T00:41:37;18.20;99.90
9103;DHT22;4587;51.434;6.788;2022-07-11T00:44:03;18.20;99.90
9103;DHT22;4587;51.434;6.788;2022-07-11T00:46:29;18.20;99.90
9103;DHT22;4587;51.434;6.788;2022-07-11T00:48:56;18.20;99.90
9103;DHT22;4587;51.434;6.788;2022-07-11T00:51:23;18.20;99.90
9103;DHT22;4587;51.434;6.788;2022-07-11T00:53:54;18.20;99.90
9103;DHT22;4587;51.434;6.788;2022-07-11T00:56:22;18.20;99.90
9103;DHT22;4587;51.434;6.788;2022-07-11T00:58:48;18.20;99.90
9103;DHT22;4587;51.434;6.788;2022-07-11T01:01:15;18.20;99.90
9103;DHT22;4587;51.434;6.788;2022-07-11T01:03:41;18.20;99.90
9103;DHT22;4587;51.434;6.788;2022-07-11T01:06:07;18.10;99.90
9103;DHT22;4587;51.434;6.788;2022-07-11T01:08:34;18.20;99.90
9103;DHT22;4587;51.434;6.788;2022-07-11T01:11:05;18.10;99.90
9103;DHT22;4587;51.434;6.788;2022-07-11T01:13:34;18.00;99.90
9103;DHT22;4587;51.434;6.788;2022-07-11T01:16:14;18.00;99.90
9103;DHT22;4587;51.434;6.788;2022-07-11T01:18:42;18.00;99.90
9103;DHT22;4587;51.434;6.788;2022-07-11T01:21:24;17.90;99.90
9103;DHT22;4587;51.434;6.788;2022-07-11T01:23:51;17.90;99.90
9103;DHT22;4587;51.434;6.788;2022-07-11T01:26:18;17.90;99.90
9103;DHT22;4587;51.434;6.788;2022-07-11T01:28:44;17.80;99.90
9103;DHT22;4587;51.434;6.788;2022-07-11T01:31:11;17.80;99.90
9103;DHT22;4587;51.434;6.788;2022-07-11T01:33:38;17.80;99.90
9103;DHT22;4587;51.434;6.788;2022-07-11T01:36:04;17.80;99.90
9103;DHT22;4587;51.434;6.788;2022-07-11T01:38:30;17.80;99.90
9103;DHT22;4587;51.434;6.788;2022-07-11T01:40:55;17.80;99.90
9103;DHT22;4587;51.434;6.788;2022-07-11T01:43:21;17.80;99.90
9103;DHT22;4587;51.434;6.788;2022-07-11T01:45:53;17.80;99.90
9103;DHT22;4587;51.434;6.788;2022-07-11T01:48:19;17.80;99.90
9103;DHT22;4587;51.434;6.788;2022-07-11T01:50:46;17.80;99.90
9103;DHT22;4587;51.434;6.788;2022-07-11T01:53:12;17.80;99.90
9103;DHT22;4587;51.434;6.788;2022-07-11T01:55:38;17.80;99.90
9103;DHT22;4587;51.434;6.788;2022-07-11T01:58:03;17.80;99.90
9103;DHT22;4587;51.434;6.788;2022-07-11T02:00:29;17.90;99.90
9103;DHT22;4587;51.434;6.788;2022-07-11T02:02:55;17.80;99.90
9103;DHT22;4587;51.434;6.788;2022-07-11T02:05:21;17.90;99.90
9103;DHT22;4587;51.434;6.788;2022-07-11T02:07:47;17.90;99.90
9103;DHT22;4587;51.434;6.788;2022-07-11T02:10:31;17.90;99.90
9103;DHT22;4587;51.434;6.788;2022-07-11T02:12:57;17.90;99.90
9103;DHT22;4587;51.434;6.788;2022-07-11T02:15:27;17.90;99.90
9103;DHT22;4587;51.434;6.788;2022-07-11T02:17:53;17.90;99.90
9103;DHT22;4587;51.434;6.788;2022-07-11T02:20:20;17.80;99.90
9103;DHT22;4587;51.434;6.788;2022-07-11T02:22:46;17.90;99.90
9103;DHT22;4587;51.434;6.788;2022-07-11T02:25:12;17.80;99.90
9103;DHT22;4587;51.434;6.788;2022-07-11T02:27:38;17.80;99.90
9103;DHT22;4587;51.434;6.788;2022-07-11T02:30:04;17.80;99.90
9103;DHT22;4587;51.434;6.788;2022-07-11T02:32:30;17.80;99.90
9103;DHT22;4587;51.434;6.788;2022-07-11T02:34:55;17.90;99.90
9103;DHT22;4587;51.434;6.788;2022-07-11T02:37:21;17.80;99.90
9103;DHT22;4587;51.434;6.788;2022-07-11T02:39:47;17.80;99.90
9103;DHT22;4587;51.434;6.788;2022-07-11T02:42:13;17.80;99.90
9103;DHT22;4587;51.434;6.788;2022-07-11T02:44:38;17.80;99.90
9103;DHT22;4587;51.434;6.788;2022-07-11T02:47:04;17.70;99.90
9103;DHT22;4587;51.434;6.788;2022-07-11T02:49:30;17.80;99.90
9103;DHT22;4587;51.434;6.788;2022-07-11T02:51:56;17.70;99.90
9103;DHT22;4587;51.434;6.788;2022-07-11T02:54:22;17.70;99.90
9103;DHT22;4587;51.434;6.788;2022-07-11T02:56:48;17.80;99.90
9103;DHT22;4587;51.434;6.788;2022-07-11T02:59:13;17.70;99.90
9103;DHT22;4587;51.434;6.788;2022-07-11T03:01:39;17.70;99.90
9103;DHT22;4587;51.434;6.788;2022-07-11T03:04:09;17.70;99.90
9103;DHT22;4587;51.434;6.788;2022-07-11T03:06:35;17.70;99.90
9103;DHT22;4587;51.434;6.788;2022-07-11T03:09:01;17.70;99.90
9103;DHT22;4587;51.434;6.788;2022-07-11T03:11:27;17.70;99.90
9103;DHT22;4587;51.434;6.788;2022-07-11T03:13:53;17.70;99.90
9103;DHT22;4587;51.434;6.788;2022-07-11T03:16:19;17.70;99.90
9103;DHT22;4587;51.434;6.788;2022-07-11T03:18:44;17.70;99.90
9103;DHT22;4587;51.434;6.788;2022-07-11T03:21:10;17.70;99.90
9103;DHT22;4587;51.434;6.788;2022-07-11T03:23:36;17.60;99.90
9103;DHT22;4587;51.434;6.788;2022-07-11T03:26:01;17.70;99.90
9103;DHT22;4587;51.434;6.788;2022-07-11T03:28:28;17.60;99.90
9103;DHT22;4587;51.434;6.788;2022-07-11T03:30:54;17.60;99.90
9103;DHT22;4587;51.434;6.788;2022-07-11T03:33:20;17.60;99.90
9103;DHT22;4587;51.434;6.788;2022-07-11T03:35:46;17.60;99.90
9103;DHT22;4587;51.434;6.788;2022-07-11T03:38:12;17.60;99.90
9103;DHT22;4587;51.434;6.788;2022-07-11T03:40:39;17.60;99.90
9103;DHT22;4587;51.434;6.788;2022-07-11T03:43:05;17.50;99.90
9103;DHT22;4587;51.434;6.788;2022-07-11T03:45:30;17.60;99.90
9103;DHT22;4587;51.434;6.788;2022-07-11T03:47:56;17.50;99.90
9103;DHT22;4587;51.434;6.788;2022-07-11T03:50:22;17.50;99.90
9103;DHT22;4587;51.434;6.788;2022-07-11T03:52:47;17.50;99.90
9103;DHT22;4587;51.434;6.788;2022-07-11T03:55:13;17.50;99.90
9103;DHT22;4587;51.434;6.788;2022-07-11T03:57:38;17.50;99.90
9103;DHT22;4587;51.434;6.788;2022-07-11T04:00:06;17.60;99.90
9103;DHT22;4587;51.434;6.788;2022-07-11T04:02:33;17.50;99.90
9103;DHT22;4587;51.434;6.788;2022-07-11T04:04:59;17.50;99.90
9103;DHT22;4587;51.434;6.788;2022-07-11T04:07:25;17.50;99.90
9103;DHT22;4587;51.434;6.788;2022-07-11T04:09:50;17.50;99.90
9103;DHT22;4587;51.434;6.788;2022-07-11T04:12:16;17.50;99.90
9103;DHT22;4587;51.434;6.788;2022-07-11T04:14:43;17.50;99.90
9103;DHT22;4587;51.434;6.788;2022-07-11T04:17:09;17.60;99.90
9103;DHT22;4587;51.434;6.788;2022-07-11T04:19:35;17.60;99.90
9103;DHT22;4587;51.434;6.788;2022-07-11T04:22:01;17.60;99.90
9103;DHT22;4587;51.434;6.788;2022-07-11T04:24:26;17.60;99.90
9103;DHT22;4587;51.434;6.788;2022-07-11T04:26:52;17.60;99.90
9103;DHT22;4587;51.434;6.788;2022-07-11T04:29:17;17.60;99.90
9103;DHT22;4587;51.434;6.788;2022-07-11T04:31:43;17.60;99.90
9103;DHT22;4587;51.434;6.788;2022-07-11T04:34:09;17.60;99.90
9103;DHT22;4587;51.434;6.788;2022-07-11T04:36:34;17.70;99.90
9103;DHT22;4587;51.434;6.788;2022-07-11T04:39:00;17.70;99.90
9103;DHT22;4587;51.434;6.788;2022-07-11T04:41:25;17.80;99.90
9103;DHT22;4587;51.434;6.788;2022-07-11T04:43:51;17.80;99.90
9103;DHT22;4587;51.434;6.788;2022-07-11T04:46:17;17.80;99.90
9103;DHT22;4587;51.434;6.788;2022-07-11T04:48:42;17.80;99.90
9103;DHT22;4587;51.434;6.788;2022-07-11T04:51:08;17.80;99.90
9103;DHT22;4587;51.434;6.788;2022-07-11T04:53:34;17.90;99.90
9103;DHT22;4587;51.434;6.788;2022-07-11T04:56:00;17.90;99.90
9103;DHT22;4587;51.434;6.788;2022-07-11T04:58:25;17.80;99.90
9103;DHT22;4587;51.434;6.788;2022-07-11T05:00:51;17.80;99.90
9103;DHT22;4587;51.434;6.788;2022-07-11T05:03:17;17.80;99.90
9103;DHT22;4587;51.434;6.788;2022-07-11T05:05:45;17.80;99.90
9103;DHT22;4587;51.434;6.788;2022-07-11T05:08:11;17.70;99.90
9103;DHT22;4587;51.434;6.788;2022-07-11T05:10:36;17.70;99.90
9103;DHT22;4587;51.434;6.788;2022-07-11T05:13:03;17.70;99.90
9103;DHT22;4587;51.434;6.788;2022-07-11T05:15:28;17.70;99.90
9103;DHT22;4587;51.434;6.788;2022-07-11T05:17:54;17.70;99.90
9103;DHT22;4587;51.434;6.788;2022-07-11T05:20:19;17.70;99.90
9103;DHT22;4587;51.434;6.788;2022-07-11T05:22:45;17.70;99.90
9103;DHT22;4587;51.434;6.788;2022-07-11T05:25:12;17.70;99.90
9103;DHT22;4587;51.434;6.788;2022-07-11T05:27:37;17.70;99.90
9103;DHT22;4587;51.434;6.788;2022-07-11T05:30:03;17.70;99.90
9103;DHT22;4587;51.434;6.788;2022-07-11T05:32:29;17.70;99.90
9103;DHT22;4587;51.434;6.788;2022-07-11T05:34:55;17.70;99.90
9103;DHT22;4587;51.434;6.788;2022-07-11T05:37:22;17.70;99.90
9103;DHT22;4587;51.434;6.788;2022-07-11T05:39:48;17.70;99.90
9103;DHT22;4587;51.434;6.788;2022-07-11T05:42:13;17.60;99.90
9103;DHT22;4587;51.434;6.788;2022-07-11T05:44:40;17.60;99.90
9103;DHT22;4587;51.434;6.788;2022-07-11T05:47:06;17.60;99.90
9103;DHT22;4587;51.434;6.788;2022-07-11T05:49:31;17.60;99.90
9103;DHT22;4587;51.434;6.788;2022-07-11T05:51:57;17.60;99.90
9103;DHT22;4587;51.434;6.788;2022-07-11T05:54:23;17.60;99.90
9103;DHT22;4587;51.434;6.788;2022-07-11T05:56:49;17.70;99.90
9103;DHT22;4587;51.434;6.788;2022-07-11T05:59:15;17.60;99.90
9103;DHT22;4587;51.434;6.788;2022-07-11T06:01:40;17.60;99.90
9103;DHT22;4587;51.434;6.788;2022-07-11T06:04:06;17.70;99.90
9103;DHT22;4587;51.434;6.788;2022-07-11T06:06:32;17.60;99.90
9103;DHT22;4587;51.434;6.788;2022-07-11T06:08:58;17.60;99.90
9103;DHT22;4587;51.434;6.788;2022-07-11T06:11:23;17.60;99.90
9103;DHT22;4587;51.434;6.788;2022-07-11T06:13:50;17.60;99.90
9103;DHT22;4587;51.434;6.788;2022-07-11T06:16:16;17.50;99.90
9103;DHT22;4587;51.434;6.788;2022-07-11T06:18:42;17.60;99.90
9103;DHT22;4587;51.434;6.788;2022-07-11T06:21:08;17.60;99.90
9103;DHT22;4587;51.434;6.788;2022-07-11T06:23:34;17.60;99.90
9103;DHT22;4587;51.434;6.788;2022-07-11T06:26:02;17.60;99.90
9103;DHT22;4587;51.434;6.788;2022-07-11T06:28:28;17.70;99.90
9103;DHT22;4587;51.434;6.788;2022-07-11T06:30:54;17.70;99.90
9103;DHT22;4587;51.434;6.788;2022-07-11T06:33:20;17.60;99.90
9103;DHT22;4587;51.434;6.788;2022-07-11T06:35:46;17.60;99.90
9103;DHT22;4587;51.434;6.788;2022-07-11T06:38:13;17.60;99.90
9103;DHT22;4587;51.434;6.788;2022-07-11T06:40:39;17.60;99.90
9103;DHT22;4587;51.434;6.788;2022-07-11T06:43:06;17.60;99.90
9103;DHT22;4587;51.434;6.788;2022-07-11T06:45:32;17.50;99.90
9103;DHT22;4587;51.434;6.788;2022-07-11T06:47:58;17.60;99.90
9103;DHT22;4587;51.434;6.788;2022-07-11T06:50:24;17.50;99.90
9103;DHT22;4587;51.434;6.788;2022-07-11T06:52:50;17.50;99.90
9103;DHT22;4587;51.434;6.788;2022-07-11T06:55:16;17.50;99.90
9103;DHT22;4587;51.434;6.788;2022-07-11T06:57:42;17.50;99.90
9103;DHT22;4587;51.434;6.788;2022-07-11T07:00:08;17.50;99.90
9103;DHT22;4587;51.434;6.788;2022-07-11T07:02:34;17.60;99.90
9103;DHT22;4587;51.434;6.788;2022-07-11T07:05:00;17.60;99.90
9103;DHT22;4587;51.434;6.788;2022-07-11T07:07:27;17.60;99.90
9103;DHT22;4587;51.434;6.788;2022-07-11T07:09:53;17.60;99.90
9103;DHT22;4587;51.434;6.788;2022-07-11T07:12:20;17.70;99.90
9103;DHT22;4587;51.434;6.788;2022-07-11T07:14:45;17.70;99.90
9103;DHT22;4587;51.434;6.788;2022-07-11T07:17:11;17.70;99.90
9103;DHT22;4587;51.434;6.788;2022-07-11T07:19:37;17.70;99.90
9103;DHT22;4587;51.434;6.788;2022-07-11T07:22:02;17.70;99.90
9103;DHT22;4587;51.434;6.788;2022-07-11T07:24:28;17.70;99.90
9103;DHT22;4587;51.434;6.788;2022-07-11T07:26:54;17.70;99.90
9103;DHT22;4587;51.434;6.788;2022-07-11T07:29:19;17.70;99.90
9103;DHT22;4587;51.434;6.788;2022-07-11T07:31:46;17.80;99.90
9103;DHT22;4587;51.434;6.788;2022-07-11T07:34:12;17.80;99.90
9103;DHT22;4587;51.434;6.788;2022-07-11T07:36:37;17.90;99.90
9103;DHT22;4587;51.434;6.788;2022-07-11T07:39:03;17.80;99.90
9103;DHT22;4587;51.434;6.788;2022-07-11T07:41:29;17.90;99.90
9103;DHT22;4587;51.434;6.788;2022-07-11T07:43:54;17.90;99.90
9103;DHT22;4587;51.434;6.788;2022-07-11T07:46:20;18.00;99.90
9103;DHT22;4587;51.434;6.788;2022-07-11T07:48:45;18.20;99.90
9103;DHT22;4587;51.434;6.788;2022-07-11T07:51:11;18.40;99.90
9103;DHT22;4587;51.434;6.788;2022-07-11T07:53:37;18.50;99.90
9103;DHT22;4587;51.434;6.788;2022-07-11T07:56:04;18.60;99.90
9103;DHT22;4587;51.434;6.788;2022-07-11T07:58:30;18.70;99.90
9103;DHT22;4587;51.434;6.788;2022-07-11T08:00:56;18.70;99.90
9103;DHT22;4587;51.434;6.788;2022-07-11T08:03:40;18.70;99.90
9103;DHT22;4587;51.434;6.788;2022-07-11T08:06:06;18.80;99.90
9103;DHT22;4587;51.434;6.788;2022-07-11T08:08:31;18.90;99.90
9103;DHT22;4587;51.434;6.788;2022-07-11T08:10:57;18.90;99.90
9103;DHT22;4587;51.434;6.788;2022-07-11T08:13:26;18.80;99.90
9103;DHT22;4587;51.434;6.788;2022-07-11T08:15:52;18.80;99.90
9103;DHT22;4587;51.434;6.788;2022-07-11T08:18:18;18.80;99.90
9103;DHT22;4587;51.434;6.788;2022-07-11T08:20:43;18.70;99.90
9103;DHT22;4587;51.434;6.788;2022-07-11T08:23:09;18.80;99.90
9103;DHT22;4587;51.434;6.788;2022-07-11T08:25:34;18.80;99.90
9103;DHT22;4587;51.434;6.788;2022-07-11T08:28:00;18.90;99.90
9103;DHT22;4587;51.434;6.788;2022-07-11T08:30:26;19.00;99.90
9103;DHT22;4587;51.434;6.788;2022-07-11T08:32:52;19.00;99.90
9103;DHT22;4587;51.434;6.788;2022-07-11T08:35:18;19.10;99.90
9103;DHT22;4587;51.434;6.788;2022-07-11T08:37:44;19.10;99.90
9103;DHT22;4587;51.434;6.788;2022-07-11T08:40:10;19.20;99.90
9103;DHT22;4587;51.434;6.788;2022-07-11T08:42:40;19.20;99.90
9103;DHT22;4587;51.434;6.788;2022-07-11T08:45:10;19.30;99.90
9103;DHT22;4587;51.434;6.788;2022-07-11T08:47:36;19.40;99.90
9103;DHT22;4587;51.434;6.788;2022-07-11T08:50:02;19.40;99.90
9103;DHT22;4587;51.434;6.788;2022-07-11T08:52:28;19.40;99.90
9103;DHT22;4587;51.434;6.788;2022-07-11T08:54:55;19.40;99.90
9103;DHT22;4587;51.434;6.788;2022-07-11T08:57:21;19.50;99.90
9103;DHT22;4587;51.434;6.788;2022-07-11T08:59:47;19.60;99.90
9103;DHT22;4587;51.434;6.788;2022-07-11T09:02:14;19.70;99.90
9103;DHT22;4587;51.434;6.788;2022-07-11T09:04:40;20.00;99.90
9103;DHT22;4587;51.434;6.788;2022-07-11T09:07:06;20.30;99.90
9103;DHT22;4587;51.434;6.788;2022-07-11T09:09:32;20.60;99.90
9103;DHT22;4587;51.434;6.788;2022-07-11T09:11:58;20.90;99.90
9103;DHT22;4587;51.434;6.788;2022-07-11T09:14:31;21.00;99.90
9103;DHT22;4587;51.434;6.788;2022-07-11T09:17:01;21.00;99.90
9103;DHT22;4587;51.434;6.788;2022-07-11T09:19:29;21.10;99.90
9103;DHT22;4587;51.434;6.788;2022-07-11T09:22:06;21.10;99.90
9103;DHT22;4587;51.434;6.788;2022-07-11T09:30:29;20.90;99.90
9103;DHT22;4587;51.434;6.788;2022-07-11T09:33:01;20.80;99.90
9103;DHT22;4587;51.434;6.788;2022-07-11T09:35:30;20.60;99.90
9103;DHT22;4587;51.434;6.788;2022-07-11T09:37:56;20.50;99.90
9103;DHT22;4587;51.434;6.788;2022-07-11T09:40:22;20.40;99.90
9103;DHT22;4587;51.434;6.788;2022-07-11T09:42:50;20.30;99.90
9103;DHT22;4587;51.434;6.788;2022-07-11T09:45:17;20.20;99.90
9103;DHT22;4587;51.434;6.788;2022-07-11T09:47:44;20.20;99.90
9103;DHT22;4587;51.434;6.788;2022-07-11T09:50:10;20.20;99.90
9103;DHT22;4587;51.434;6.788;2022-07-11T09:52:36;20.10;99.90
9103;DHT22;4587;51.434;6.788;2022-07-11T09:55:02;20.10;99.90
9103;DHT22;4587;51.434;6.788;2022-07-11T09:57:33;20.10;99.90
9103;DHT22;4587;51.434;6.788;2022-07-11T10:00:04;20.10;99.90
9103;DHT22;4587;51.434;6.788;2022-07-11T10:02:30;20.10;99.90
9103;DHT22;4587;51.434;6.788;2022-07-11T10:04:57;20.10;99.90
9103;DHT22;4587;51.434;6.788;2022-07-11T10:07:24;20.10;99.90
9103;DHT22;4587;51.434;6.788;2022-07-11T10:09:49;20.20;99.90
9103;DHT22;4587;51.434;6.788;2022-07-11T10:12:15;20.20;99.90
9103;DHT22;4587;51.434;6.788;2022-07-11T10:14:42;20.30;99.90
9103;DHT22;4587;51.434;6.788;2022-07-11T10:17:39;20.40;99.90
9103;DHT22;4587;51.434;6.788;2022-07-11T10:20:21;20.50;99.90
9103;DHT22;4587;51.434;6.788;2022-07-11T10:22:58;20.60;99.90
9103;DHT22;4587;51.434;6.788;2022-07-11T10:25:49;20.60;99.90
9103;DHT22;4587;51.434;6.788;2022-07-11T10:28:26;20.60;99.90
9103;DHT22;4587;51.434;6.788;2022-07-11T10:30:56;20.70;99.90
9103;DHT22;4587;51.434;6.788;2022-07-11T10:33:25;20.70;99.90
9103;DHT22;4587;51.434;6.788;2022-07-11T10:35:51;20.80;99.90
9103;DHT22;4587;51.434;6.788;2022-07-11T10:38:18;20.80;99.90
9103;DHT22;4587;51.434;6.788;2022-07-11T10:40:45;20.90;99.90
9103;DHT22;4587;51.434;6.788;2022-07-11T10:43:32;21.00;99.90
9103;DHT22;4587;51.434;6.788;2022-07-11T10:46:29;21.00;99.90
9103;DHT22;4587;51.434;6.788;2022-07-11T10:51:57;21.10;99.90
9103;DHT22;4587;51.434;6.788;2022-07-11T11:02:27;20.80;99.90
9103;DHT22;4587;51.434;6.788;2022-07-11T11:16:42;20.60;99.90
9103;DHT22;4587;51.434;6.788;2022-07-11T11:19:00;20.50;99.90
9103;DHT22;4587;51.434;6.788;2022-07-11T11:21:26;20.50;99.90
9103;DHT22;4587;51.434;6.788;2022-07-11T11:26:51;20.60;99.90
9103;DHT22;4587;51.434;6.788;2022-07-11T11:29:25;20.60;99.90
9103;DHT22;4587;51.434;6.788;2022-07-11T11:31:56;20.60;99.90
9103;DHT22;4587;51.434;6.788;2022-07-11T11:34:22;20.70;99.90
9103;DHT22;4587;51.434;6.788;2022-07-11T11:36:59;20.70;99.90
9103;DHT22;4587;51.434;6.788;2022-07-11T11:39:29;20.70;99.90
9103;DHT22;4587;51.434;6.788;2022-07-11T11:42:11;20.80;99.90
9103;DHT22;4587;51.434;6.788;2022-07-11T11:47:16;20.80;99.90
9103;DHT22;4587;51.434;6.788;2022-07-11T11:49:46;20.80;99.90
9103;DHT22;4587;51.434;6.788;2022-07-11T11:52:12;20.80;99.90
9103;DHT22;4587;51.434;6.788;2022-07-11T11:54:38;20.80;99.90
9103;DHT22;4587;51.434;6.788;2022-07-11T11:57:09;20.70;99.90
9103;DHT22;4587;51.434;6.788;2022-07-11T11:59:39;20.70;99.90
9103;DHT22;4587;51.434;6.788;2022-07-11T12:02:05;20.70;99.90
9103;DHT22;4587;51.434;6.788;2022-07-11T12:04:33;20.80;99.90
9103;DHT22;4587;51.434;6.788;2022-07-11T12:06:59;20.90;99.90
9103;DHT22;4587;51.434;6.788;2022-07-11T12:09:27;20.90;99.90
9103;DHT22;4587;51.434;6.788;2022-07-11T12:12:18;20.90;99.90
9103;DHT22;4587;51.434;6.788;2022-07-11T12:15:03;20.90;99.90
9103;DHT22;4587;51.434;6.788;2022-07-11T12:17:29;20.90;99.90
9103;DHT22;4587;51.434;6.788;2022-07-11T12:19:55;21.00;99.90
9103;DHT22;4587;51.434;6.788;2022-07-11T12:22:21;21.00;99.90
9103;DHT22;4587;51.434;6.788;2022-07-11T12:24:48;21.10;99.90
9103;DHT22;4587;51.434;6.788;2022-07-11T12:27:23;21.20;99.90
9103;DHT22;4587;51.434;6.788;2022-07-11T12:29:49;21.30;99.90
9103;DHT22;4587;51.434;6.788;2022-07-11T12:32:19;21.30;99.90
9103;DHT22;4587;51.434;6.788;2022-07-11T12:34:46;21.30;99.90
9103;DHT22;4587;51.434;6.788;2022-07-11T12:37:17;21.40;99.90
9103;DHT22;4587;51.434;6.788;2022-07-11T12:39:55;21.40;99.90
9103;DHT22;4587;51.434;6.788;2022-07-11T12:42:28;21.40;99.90
9103;DHT22;4587;51.434;6.788;2022-07-11T12:47:47;21.50;99.90
9103;DHT22;4587;51.434;6.788;2022-07-11T12:50:20;21.50;99.90
9103;DHT22;4587;51.434;6.788;2022-07-11T12:52:52;21.60;99.90
9103;DHT22;4587;51.434;6.788;2022-07-11T12:55:22;21.70;99.90
9103;DHT22;4587;51.434;6.788;2022-07-11T12:58:10;21.70;99.90
9103;DHT22;4587;51.434;6.788;2022-07-11T13:00:38;21.70;99.90
9103;DHT22;4587;51.434;6.788;2022-07-11T13:03:06;21.70;99.90
9103;DHT22;4587;51.434;6.788;2022-07-11T13:05:51;21.80;99.90
9103;DHT22;4587;51.434;6.788;2022-07-11T13:08:31;21.70;99.90
9103;DHT22;4587;51.434;6.788;2022-07-11T13:11:14;21.70;99.90
9103;DHT22;4587;51.434;6.788;2022-07-11T13:13:44;21.60;99.90
9103;DHT22;4587;51.434;6.788;2022-07-11T13:16:10;21.50;99.90
9103;DHT22;4587;51.434;6.788;2022-07-11T13:18:36;21.50;99.90
9103;DHT22;4587;51.434;6.788;2022-07-11T13:21:02;21.40;99.90
9103;DHT22;4587;51.434;6.788;2022-07-11T13:23:29;21.50;99.90
9103;DHT22;4587;51.434;6.788;2022-07-11T13:25:55;21.50;99.90
9103;DHT22;4587;51.434;6.788;2022-07-11T13:28:21;21.40;99.90
9103;DHT22;4587;51.434;6.788;2022-07-11T13:30:49;21.40;99.90
9103;DHT22;4587;51.434;6.788;2022-07-11T13:33:15;21.30;99.90
9103;DHT22;4587;51.434;6.788;2022-07-11T13:35:41;21.40;99.90
9103;DHT22;4587;51.434;6.788;2022-07-11T13:38:06;21.50;99.90
9103;DHT22;4587;51.434;6.788;2022-07-11T13:40:32;21.50;99.90
9103;DHT22;4587;51.434;6.788;2022-07-11T13:42:59;21.50;99.90
9103;DHT22;4587;51.434;6.788;2022-07-11T13:45:26;21.50;99.90
9103;DHT22;4587;51.434;6.788;2022-07-11T13:47:53;21.60;99.90
9103;DHT22;4587;51.434;6.788;2022-07-11T13:50:18;21.60;99.90
9103;DHT22;4587;51.434;6.788;2022-07-11T13:52:47;21.70;99.90
9103;DHT22;4587;51.434;6.788;2022-07-11T13:55:18;21.70;99.90
9103;DHT22;4587;51.434;6.788;2022-07-11T13:57:44;21.60;99.90
9103;DHT22;4587;51.434;6.788;2022-07-11T14:00:10;21.60;99.90
9103;DHT22;4587;51.434;6.788;2022-07-11T14:02:36;21.60;99.90
9103;DHT22;4587;51.434;6.788;2022-07-11T14:05:02;21.60;99.90
9103;DHT22;4587;51.434;6.788;2022-07-11T14:07:28;21.70;99.90
9103;DHT22;4587;51.434;6.788;2022-07-11T14:09:53;21.70;99.90
9103;DHT22;4587;51.434;6.788;2022-07-11T14:12:19;21.70;99.90
9103;DHT22;4587;51.434;6.788;2022-07-11T14:14:45;21.70;99.90
9103;DHT22;4587;51.434;6.788;2022-07-11T14:17:11;21.70;99.90
9103;DHT22;4587;51.434;6.788;2022-07-11T14:19:36;21.60;99.90
9103;DHT22;4587;51.434;6.788;2022-07-11T14:22:05;21.50;99.90
9103;DHT22;4587;51.434;6.788;2022-07-11T14:24:31;21.50;99.90
9103;DHT22;4587;51.434;6.788;2022-07-11T14:26:58;21.50;99.90
9103;DHT22;4587;51.434;6.788;2022-07-11T14:29:24;21.50;99.90
9103;DHT22;4587;51.434;6.788;2022-07-11T14:31:51;21.50;99.90
9103;DHT22;4587;51.434;6.788;2022-07-11T14:34:18;21.50;99.90
9103;DHT22;4587;51.434;6.788;2022-07-11T14:36:43;21.40;99.90
9103;DHT22;4587;51.434;6.788;2022-07-11T14:39:09;21.40;99.90
9103;DHT22;4587;51.434;6.788;2022-07-11T14:41:35;21.30;99.90
9103;DHT22;4587;51.434;6.788;2022-07-11T14:44:01;21.30;99.90
9103;DHT22;4587;51.434;6.788;2022-07-11T14:46:26;21.40;99.90
9103;DHT22;4587;51.434;6.788;2022-07-11T14:48:52;21.40;99.90
9103;DHT22;4587;51.434;6.788;2022-07-11T14:51:18;21.50;99.90
9103;DHT22;4587;51.434;6.788;2022-07-11T14:53:43;21.50;99.90
9103;DHT22;4587;51.434;6.788;2022-07-11T14:56:09;21.70;99.90
9103;DHT22;4587;51.434;6.788;2022-07-11T14:58:35;22.10;99.90
9103;DHT22;4587;51.434;6.788;2022-07-11T15:01:01;22.30;99.90
9103;DHT22;4587;51.434;6.788;2022-07-11T15:03:26;22.50;99.90
9103;DHT22;4587;51.434;6.788;2022-07-11T15:06:06;22.60;99.90
9103;DHT22;4587;51.434;6.788;2022-07-11T15:08:32;22.70;99.90
9103;DHT22;4587;51.434;6.788;2022-07-11T15:11:16;22.70;99.90
9103;DHT22;4587;51.434;6.788;2022-07-11T15:14:01;22.60;99.90
9103;DHT22;4587;51.434;6.788;2022-07-11T15:16:27;22.70;99.90
9103;DHT22;4587;51.434;6.788;2022-07-11T15:18:53;22.70;99.90
9103;DHT22;4587;51.434;6.788;2022-07-11T15:21:19;22.80;99.90
9103;DHT22;4587;51.434;6.788;2022-07-11T15:23:44;23.00;99.90
9103;DHT22;4587;51.434;6.788;2022-07-11T15:26:10;23.00;99.90
9103;DHT22;4587;51.434;6.788;2022-07-11T15:28:35;22.90;99.90
9103;DHT22;4587;51.434;6.788;2022-07-11T15:31:01;22.70;99.90
9103;DHT22;4587;51.434;6.788;2022-07-11T15:33:27;22.60;99.90
9103;DHT22;4587;51.434;6.788;2022-07-11T15:35:53;22.40;99.90
9103;DHT22;4587;51.434;6.788;2022-07-11T15:38:20;22.30;99.90
9103;DHT22;4587;51.434;6.788;2022-07-11T15:40:46;22.20;99.90
9103;DHT22;4587;51.434;6.788;2022-07-11T15:43:12;22.10;99.90
9103;DHT22;4587;51.434;6.788;2022-07-11T15:45:39;22.10;99.90
9103;DHT22;4587;51.434;6.788;2022-07-11T15:48:06;22.10;99.90
9103;DHT22;4587;51.434;6.788;2022-07-11T15:50:31;22.20;99.90
9103;DHT22;4587;51.434;6.788;2022-07-11T15:52:57;22.20;99.90
9103;DHT22;4587;51.434;6.788;2022-07-11T15:55:23;22.20;99.90
9103;DHT22;4587;51.434;6.788;2022-07-11T15:57:49;22.30;99.90
9103;DHT22;4587;51.434;6.788;2022-07-11T16:00:15;22.50;99.90
9103;DHT22;4587;51.434;6.788;2022-07-11T16:02:41;22.70;99.90
9103;DHT22;4587;51.434;6.788;2022-07-11T16:05:07;22.70;99.90
9103;DHT22;4587;51.434;6.788;2022-07-11T16:07:33;22.70;99.90
9103;DHT22;4587;51.434;6.788;2022-07-11T16:09:59;22.60;99.90
9103;DHT22;4587;51.434;6.788;2022-07-11T16:12:27;22.60;99.90
9103;DHT22;4587;51.434;6.788;2022-07-11T16:14:52;22.60;99.90
9103;DHT22;4587;51.434;6.788;2022-07-11T16:17:18;22.60;99.90
9103;DHT22;4587;51.434;6.788;2022-07-11T16:19:45;22.60;99.90
9103;DHT22;4587;51.434;6.788;2022-07-11T16:22:11;22.60;99.90
9103;DHT22;4587;51.434;6.788;2022-07-11T16:24:37;22.60;99.90
9103;DHT22;4587;51.434;6.788;2022-07-11T16:27:03;22.60;99.90
9103;DHT22;4587;51.434;6.788;2022-07-11T16:29:28;22.60;99.90
9103;DHT22;4587;51.434;6.788;2022-07-11T16:31:54;22.60;99.90
9103;DHT22;4587;51.434;6.788;2022-07-11T16:34:19;22.60;99.90
9103;DHT22;4587;51.434;6.788;2022-07-11T16:36:46;22.60;99.90
9103;DHT22;4587;51.434;6.788;2022-07-11T16:39:11;22.60;99.90